createdAt,value
2019-05-20T00:02:32.639Z,15.50
2019-05-20T00:05:01.055Z,15.40
2019-05-20T00:07:29.493Z,15.30
2019-05-20T00:09:57.989Z,15.40
2019-05-20T00:12:26.399Z,15.40
2019-05-20T00:14:56.496Z,15.40
2019-05-20T00:17:24.922Z,15.30
2019-05-20T00:19:53.304Z,15.30
2019-05-20T00:22:21.742Z,15.40
2019-05-20T00:24:50.148Z,15.30
2019-05-20T00:27:18.563Z,15.30
2019-05-20T00:29:46.974Z,15.40
2019-05-20T00:32:15.414Z,15.50
2019-05-20T00:34:43.885Z,15.50
2019-05-20T00:37:13.950Z,15.50
2019-05-20T00:39:46.493Z,15.50
2019-05-20T00:42:14.998Z,15.50
2019-05-20T00:44:43.464Z,15.50
2019-05-20T00:47:12.466Z,15.40
2019-05-20T00:49:40.982Z,15.40
2019-05-20T00:52:09.454Z,15.30
2019-05-20T00:54:37.897Z,15.20
2019-05-20T00:57:06.458Z,15.10
2019-05-20T00:59:34.932Z,15.10
2019-05-20T01:02:03.445Z,15.00
2019-05-20T01:04:31.917Z,15.00
2019-05-20T01:07:00.361Z,15.00
2019-05-20T01:09:28.791Z,15.00
2019-05-20T01:11:57.321Z,15.00
2019-05-20T01:14:25.949Z,15.10
2019-05-20T01:16:54.369Z,15.10
2019-05-20T01:19:22.792Z,15.10
2019-05-20T01:21:51.283Z,15.10
2019-05-20T01:24:19.744Z,15.10
2019-05-20T01:26:48.364Z,15.10
2019-05-20T01:29:16.872Z,15.10
2019-05-20T01:31:45.289Z,15.20
2019-05-20T01:34:13.810Z,15.30
2019-05-20T01:36:42.237Z,15.30
2019-05-20T01:39:10.667Z,15.30
2019-05-20T01:41:39.103Z,15.20
2019-05-20T01:44:07.539Z,15.10
2019-05-20T01:46:35.980Z,15.10
2019-05-20T01:49:04.539Z,15.10
2019-05-20T01:51:32.965Z,15.10
2019-05-20T01:54:01.421Z,15.10
2019-05-20T01:56:29.907Z,15.00
2019-05-20T01:58:58.349Z,15.00
2019-05-20T02:01:26.833Z,15.00
2019-05-20T02:03:55.282Z,15.00
2019-05-20T02:06:23.703Z,15.00
2019-05-20T02:08:52.152Z,14.90
2019-05-20T02:11:20.557Z,14.90
2019-05-20T02:13:56.842Z,14.90
2019-05-20T02:16:27.091Z,15.00
2019-05-20T02:18:55.589Z,15.00
2019-05-20T02:21:24.009Z,14.90
2019-05-20T02:23:52.453Z,14.90
2019-05-20T02:26:20.876Z,14.90
2019-05-20T02:28:49.327Z,14.90
2019-05-20T02:31:17.751Z,14.90
2019-05-20T02:33:51.514Z,14.80
2019-05-20T02:36:16.354Z,14.80
2019-05-20T02:38:44.758Z,14.80
2019-05-20T02:41:13.210Z,14.70
2019-05-20T02:43:41.727Z,14.70
2019-05-20T02:46:10.295Z,14.70
2019-05-20T02:48:38.868Z,14.60
2019-05-20T02:51:08.951Z,14.60
2019-05-20T02:53:37.361Z,14.60
2019-05-20T02:56:05.891Z,14.60
2019-05-20T02:58:34.292Z,14.60
2019-05-20T03:01:02.732Z,14.70
2019-05-20T03:03:31.153Z,14.70
2019-05-20T03:05:59.590Z,14.70
2019-05-20T03:08:28.011Z,14.70
2019-05-20T03:10:56.442Z,14.80
2019-05-20T03:13:24.970Z,14.80
2019-05-20T03:15:53.405Z,14.70
2019-05-20T03:18:21.830Z,14.70
2019-05-20T03:20:50.271Z,14.80
2019-05-20T03:23:18.844Z,14.80
2019-05-20T03:25:47.551Z,14.80
2019-05-20T03:28:15.966Z,14.80
2019-05-20T03:30:44.438Z,14.90
2019-05-20T03:33:12.847Z,14.70
2019-05-20T03:35:41.348Z,14.70
2019-05-20T03:38:09.783Z,14.70
2019-05-20T03:40:38.222Z,14.70
2019-05-20T03:43:06.666Z,14.70
2019-05-20T03:45:35.099Z,14.70
2019-05-20T03:48:03.610Z,14.60
2019-05-20T03:50:32.030Z,14.70
2019-05-20T03:53:00.458Z,14.70
2019-05-20T03:55:28.873Z,14.60
2019-05-20T03:57:57.324Z,14.60
2019-05-20T04:00:37.581Z,14.60
2019-05-20T04:03:06.035Z,14.60
2019-05-20T04:05:34.457Z,14.60
2019-05-20T04:08:02.901Z,14.60
2019-05-20T04:10:31.318Z,14.50
2019-05-20T04:13:00.265Z,14.50
2019-05-20T04:15:28.690Z,14.60
2019-05-20T04:17:57.157Z,14.60
2019-05-20T04:20:25.587Z,14.60
2019-05-20T04:22:54.163Z,14.60
2019-05-20T04:25:22.577Z,14.60
2019-05-20T04:27:51.016Z,14.50
2019-05-20T04:30:19.596Z,14.50
2019-05-20T04:32:48.070Z,14.50
2019-05-20T04:35:22.096Z,14.50
2019-05-20T04:37:46.668Z,14.40
2019-05-20T04:40:15.321Z,14.50
2019-05-20T04:42:43.763Z,14.50
2019-05-20T04:45:12.431Z,14.50
2019-05-20T04:47:40.972Z,14.40
2019-05-20T04:50:09.835Z,14.40
2019-05-20T04:52:38.269Z,14.40
2019-05-20T04:55:06.772Z,14.30
2019-05-20T04:57:35.214Z,14.30
2019-05-20T05:00:08.854Z,14.40
2019-05-20T05:02:37.345Z,14.30
2019-05-20T05:05:07.327Z,14.40
2019-05-20T05:07:36.058Z,14.50
2019-05-20T05:10:06.640Z,14.50
2019-05-20T05:12:35.135Z,14.60
2019-05-20T05:15:07.907Z,14.60
2019-05-20T05:17:35.584Z,14.70
2019-05-20T05:20:05.614Z,14.70
2019-05-20T05:22:34.188Z,14.70
2019-05-20T05:25:02.954Z,14.70
2019-05-20T05:27:31.384Z,14.70
2019-05-20T05:29:59.825Z,14.60
2019-05-20T05:32:44.381Z,14.50
2019-05-20T05:35:18.433Z,14.60
2019-05-20T05:37:47.440Z,14.60
2019-05-20T05:40:16.766Z,14.60
2019-05-20T05:42:45.188Z,14.70
2019-05-20T05:45:13.975Z,14.60
2019-05-20T05:47:42.394Z,14.60
2019-05-20T05:50:11.400Z,14.80
2019-05-20T05:52:40.058Z,14.90
2019-05-20T05:55:08.785Z,15.00
2019-05-20T05:57:37.209Z,15.00
2019-05-20T06:00:07.486Z,14.90
2019-05-20T06:02:35.918Z,14.90
2019-05-20T06:05:05.689Z,15.00
2019-05-20T06:07:34.105Z,15.00
2019-05-20T06:10:02.569Z,14.90
2019-05-20T06:12:31.046Z,15.00
2019-05-20T06:14:59.493Z,14.90
2019-05-20T06:17:27.990Z,14.90
2019-05-20T06:19:56.421Z,14.90
2019-05-20T06:22:24.875Z,14.90
2019-05-20T06:24:53.293Z,14.90
2019-05-20T06:27:21.782Z,14.80
2019-05-20T06:29:50.205Z,14.80
2019-05-20T06:32:18.719Z,14.80
2019-05-20T06:34:48.784Z,14.80
2019-05-20T06:37:24.312Z,14.80
2019-05-20T06:39:52.748Z,14.90
2019-05-20T06:42:22.249Z,14.90
2019-05-20T06:44:53.225Z,15.00
2019-05-20T06:47:20.849Z,15.00
2019-05-20T06:49:49.281Z,15.00
2019-05-20T06:52:33.268Z,15.00
2019-05-20T06:54:47.876Z,15.00
2019-05-20T06:57:16.368Z,14.90
2019-05-20T06:59:44.871Z,14.90
2019-05-20T07:02:13.339Z,15.00
2019-05-20T07:04:41.760Z,15.00
2019-05-20T07:07:20.346Z,15.10
2019-05-20T07:09:40.491Z,15.00
2019-05-20T07:12:08.932Z,15.10
2019-05-20T07:14:37.437Z,15.10
2019-05-20T07:17:05.888Z,15.10
2019-05-20T07:19:34.331Z,15.10
2019-05-20T07:22:02.759Z,15.10
2019-05-20T07:24:31.180Z,15.20
2019-05-20T07:26:59.939Z,15.20
2019-05-20T07:29:28.440Z,15.30
2019-05-20T07:31:56.897Z,15.40
2019-05-20T07:34:25.450Z,15.50
2019-05-20T07:37:03.433Z,15.50
2019-05-20T07:39:24.305Z,15.60
2019-05-20T07:41:52.801Z,15.60
2019-05-20T07:44:21.335Z,15.60
2019-05-20T07:46:50.066Z,15.70
2019-05-20T07:49:19.353Z,15.70
2019-05-20T07:51:48.692Z,15.70
2019-05-20T07:54:18.466Z,15.70
2019-05-20T07:56:49.030Z,15.80
2019-05-20T07:59:20.401Z,15.80
2019-05-20T08:01:48.898Z,15.90
2019-05-20T08:04:17.348Z,16.00
2019-05-20T08:06:45.843Z,16.00
2019-05-20T08:09:14.461Z,16.00
2019-05-20T08:11:42.885Z,16.10
2019-05-20T08:14:11.383Z,16.00
2019-05-20T08:16:39.887Z,15.90
2019-05-20T08:19:08.393Z,16.00
2019-05-20T08:21:36.822Z,16.10
2019-05-20T08:24:05.496Z,16.20
2019-05-20T08:26:34.078Z,16.10
2019-05-20T08:29:02.909Z,16.20
2019-05-20T08:31:31.362Z,16.20
2019-05-20T08:33:59.788Z,16.20
2019-05-20T08:36:28.239Z,16.10
2019-05-20T08:38:56.657Z,16.10
2019-05-20T08:41:25.204Z,16.10
2019-05-20T08:43:53.686Z,16.10
2019-05-20T08:46:22.265Z,16.10
2019-05-20T08:48:50.784Z,16.20
2019-05-20T08:51:19.514Z,16.30
2019-05-20T08:53:48.046Z,16.20
2019-05-20T08:56:16.676Z,16.20
2019-05-20T08:58:45.188Z,16.30
2019-05-20T09:01:13.644Z,16.40
2019-05-20T09:03:42.137Z,16.50
2019-05-20T09:06:10.645Z,16.40
2019-05-20T09:08:39.192Z,16.30
2019-05-20T09:11:07.704Z,16.30
2019-05-20T09:13:36.144Z,16.30
2019-05-20T09:16:04.958Z,16.30
2019-05-20T09:18:33.404Z,16.30
2019-05-20T09:21:02.036Z,16.30
2019-05-20T09:23:30.774Z,16.30
2019-05-20T09:25:59.225Z,16.40
2019-05-20T09:28:27.674Z,16.40
2019-05-20T09:30:56.683Z,16.40
2019-05-20T09:33:26.724Z,16.40
2019-05-20T09:35:55.366Z,16.30
2019-05-20T09:38:23.802Z,16.20
2019-05-20T09:40:52.242Z,16.20
2019-05-20T09:43:20.678Z,16.20
2019-05-20T09:46:05.640Z,16.30
2019-05-20T09:48:19.286Z,16.40
2019-05-20T09:50:47.744Z,16.40
2019-05-20T09:53:16.177Z,16.50
2019-05-20T09:55:44.600Z,16.50
2019-05-20T09:58:13.316Z,16.50
2019-05-20T10:00:41.973Z,16.40
2019-05-20T10:03:10.430Z,16.40
2019-05-20T10:05:38.876Z,16.40
2019-05-20T10:08:07.629Z,16.40
2019-05-20T10:10:36.306Z,16.40
2019-05-20T10:13:05.231Z,16.30
2019-05-20T10:15:33.857Z,16.30
2019-05-20T10:18:02.472Z,16.30
2019-05-20T10:20:30.965Z,16.30
2019-05-20T10:22:59.466Z,16.30
2019-05-20T10:25:27.903Z,16.30
2019-05-20T10:27:57.757Z,16.30
2019-05-20T10:30:26.534Z,16.20
2019-05-20T10:32:54.978Z,16.20
2019-05-20T10:35:23.493Z,16.20
2019-05-20T10:37:51.891Z,16.20
2019-05-20T10:40:20.433Z,16.20
2019-05-20T10:42:48.862Z,16.20
2019-05-20T10:45:18.181Z,16.10
2019-05-20T10:47:46.646Z,16.20
2019-05-20T10:50:15.537Z,16.10
2019-05-20T10:52:43.957Z,16.10
2019-05-20T10:55:13.672Z,16.10
2019-05-20T10:57:42.163Z,16.00
2019-05-20T11:00:11.343Z,16.10
2019-05-20T11:02:39.765Z,16.20
2019-05-20T11:05:10.316Z,16.30
2019-05-20T11:07:38.798Z,16.30
2019-05-20T11:10:08.536Z,16.20
2019-05-20T11:12:37.034Z,16.20
2019-05-20T11:15:08.826Z,16.20
2019-05-20T11:17:37.258Z,16.20
2019-05-20T11:20:08.152Z,16.10
2019-05-20T11:22:36.605Z,16.20
2019-05-20T11:25:06.754Z,16.20
2019-05-20T11:27:35.298Z,16.20
2019-05-20T11:30:07.925Z,16.20
2019-05-20T11:32:36.521Z,16.20
2019-05-20T11:35:07.100Z,16.30
2019-05-20T11:37:35.509Z,16.20
2019-05-20T11:40:06.891Z,16.30
2019-05-20T11:42:35.341Z,16.30
2019-05-20T11:45:06.329Z,16.40
2019-05-20T11:47:34.749Z,16.50
2019-05-20T11:50:05.183Z,16.60
2019-05-20T11:52:33.734Z,16.70
2019-05-20T11:55:02.193Z,16.70
2019-05-20T11:57:30.637Z,16.70
2019-05-20T11:59:59.213Z,16.70
2019-05-20T12:02:27.707Z,16.80
2019-05-20T12:04:56.166Z,16.70
2019-05-20T12:07:24.584Z,16.70
2019-05-20T12:09:54.665Z,16.80
2019-05-20T12:12:23.105Z,17.00
2019-05-20T12:14:51.532Z,17.20
2019-05-20T12:17:19.985Z,17.20
2019-05-20T12:19:48.408Z,17.30
2019-05-20T12:22:16.869Z,17.40
2019-05-20T12:24:45.273Z,17.50
2019-05-20T12:27:13.823Z,17.60
2019-05-20T12:29:42.263Z,17.70
2019-05-20T12:32:10.701Z,17.90
2019-05-20T12:34:39.177Z,17.90
2019-05-20T12:37:07.635Z,17.90
2019-05-20T12:39:36.080Z,17.90
2019-05-20T12:42:04.673Z,17.90
2019-05-20T12:44:33.089Z,18.00
2019-05-20T12:47:01.531Z,18.00
2019-05-20T12:49:29.995Z,18.00
2019-05-20T12:51:58.572Z,18.00
2019-05-20T12:54:26.997Z,18.00
2019-05-20T12:56:55.466Z,18.10
2019-05-20T12:59:23.892Z,18.10
2019-05-20T13:01:52.306Z,18.10
2019-05-20T13:04:22.401Z,18.10
2019-05-20T13:06:50.926Z,18.10
2019-05-20T13:09:19.370Z,18.00
2019-05-20T13:11:47.790Z,17.90
2019-05-20T13:14:16.244Z,17.80
2019-05-20T13:16:44.687Z,17.70
2019-05-20T13:19:13.125Z,17.60
2019-05-20T13:21:44.577Z,17.40
2019-05-20T13:24:13.021Z,17.30
2019-05-20T13:26:41.449Z,17.20
2019-05-20T13:29:09.915Z,17.10
2019-05-20T13:31:38.410Z,16.90
2019-05-20T13:34:06.864Z,16.80
2019-05-20T13:36:35.291Z,16.70
2019-05-20T13:39:05.317Z,16.70
2019-05-20T13:41:33.765Z,16.60
2019-05-20T13:44:02.229Z,16.60
2019-05-20T13:46:30.657Z,16.70
2019-05-20T13:49:01.438Z,16.70
2019-05-20T13:51:29.853Z,16.70
2019-05-20T13:53:58.290Z,16.60
2019-05-20T13:56:26.737Z,16.40
2019-05-20T13:58:55.186Z,16.40
2019-05-20T14:01:23.620Z,16.50
2019-05-20T14:03:52.181Z,16.50
2019-05-20T14:06:20.637Z,16.60
2019-05-20T14:08:49.067Z,16.60
2019-05-20T14:11:17.504Z,16.60
2019-05-20T14:13:45.953Z,16.80
2019-05-20T14:16:14.397Z,16.90
2019-05-20T14:18:42.856Z,16.70
2019-05-20T14:21:11.319Z,16.70
2019-05-20T14:23:39.760Z,16.60
2019-05-20T14:26:08.279Z,16.50
2019-05-20T14:28:36.701Z,16.50
2019-05-20T14:31:06.251Z,16.50
2019-05-20T14:33:34.912Z,16.50
2019-05-20T14:36:03.380Z,16.70
2019-05-20T14:38:31.795Z,16.70
2019-05-20T14:41:00.251Z,17.00
2019-05-20T14:43:28.958Z,17.20
2019-05-20T14:45:57.618Z,17.30
2019-05-20T14:48:26.131Z,17.30
2019-05-20T14:50:54.583Z,17.40
2019-05-20T14:53:22.997Z,17.50
2019-05-20T14:55:51.458Z,17.50
2019-05-20T14:58:19.994Z,17.50
2019-05-20T15:00:49.985Z,17.60
2019-05-20T15:03:18.425Z,17.70
2019-05-20T15:05:46.860Z,17.70
2019-05-20T15:08:15.329Z,17.70
2019-05-20T15:10:44.017Z,17.70
2019-05-20T15:13:12.462Z,17.70
2019-05-20T15:15:40.959Z,17.70
2019-05-20T15:18:09.425Z,17.60
2019-05-20T15:20:39.996Z,17.60
2019-05-20T15:23:08.444Z,17.60
2019-05-20T15:25:37.406Z,17.40
2019-05-20T15:28:05.920Z,17.30
2019-05-20T15:30:34.398Z,17.30
2019-05-20T15:33:03.167Z,17.30
2019-05-20T15:35:31.791Z,17.30
2019-05-20T15:38:00.306Z,17.30
2019-05-20T15:40:28.743Z,17.20
2019-05-20T15:42:57.263Z,17.20
2019-05-20T15:45:25.870Z,17.20
2019-05-20T15:47:54.404Z,17.20
2019-05-20T15:50:23.092Z,17.20
2019-05-20T15:52:51.582Z,17.10
2019-05-20T15:55:19.997Z,17.00
2019-05-20T15:57:48.439Z,17.00
2019-05-20T16:00:17.817Z,17.00
2019-05-20T16:02:46.352Z,17.10
2019-05-20T16:05:14.925Z,17.20
2019-05-20T16:07:43.399Z,17.20
2019-05-20T16:10:12.180Z,17.10
2019-05-20T16:12:40.609Z,17.00
2019-05-20T16:15:09.660Z,16.90
2019-05-20T16:17:38.301Z,16.80
2019-05-20T16:20:07.514Z,16.80
2019-05-20T16:22:36.020Z,16.80
2019-05-20T16:25:07.354Z,16.70
2019-05-20T16:27:35.784Z,16.60
2019-05-20T16:30:10.087Z,16.60
2019-05-20T16:32:38.700Z,16.50
2019-05-20T16:35:07.601Z,16.50
2019-05-20T16:37:36.025Z,16.50
2019-05-20T16:40:09.040Z,16.50
2019-05-20T16:42:37.459Z,16.50
2019-05-20T16:45:11.809Z,16.50
2019-05-20T16:47:39.422Z,16.50
2019-05-20T16:50:10.004Z,16.50
2019-05-20T16:52:38.842Z,16.50
2019-05-20T16:55:08.340Z,16.40
2019-05-20T16:57:36.801Z,16.40
2019-05-20T17:00:11.344Z,16.40
2019-05-20T17:02:36.699Z,16.40
2019-05-20T17:05:06.351Z,16.40
2019-05-20T17:07:34.824Z,16.50
2019-05-20T17:10:04.769Z,16.50
2019-05-20T17:12:33.220Z,16.60
2019-05-20T17:15:05.989Z,16.60
2019-05-20T17:17:34.495Z,16.60
2019-05-20T17:20:03.398Z,16.60
2019-05-20T17:22:31.834Z,16.60
2019-05-20T17:25:00.364Z,16.60
2019-05-20T17:27:28.796Z,16.60
2019-05-20T17:29:57.266Z,16.50
2019-05-20T17:32:25.729Z,16.40
2019-05-20T17:34:54.227Z,16.40
2019-05-20T17:37:22.686Z,16.30
2019-05-20T17:39:51.258Z,16.30
2019-05-20T17:42:19.709Z,16.30
2019-05-20T17:44:51.114Z,16.30
2019-05-20T17:47:19.721Z,16.20
2019-05-20T17:49:50.109Z,16.20
2019-05-20T17:52:18.688Z,16.20
2019-05-20T17:54:47.215Z,16.20
2019-05-20T17:57:15.682Z,16.20
2019-05-20T17:59:44.093Z,16.10
2019-05-20T18:02:13.113Z,16.00
2019-05-20T18:04:44.269Z,16.00
2019-05-20T18:07:12.733Z,16.00
2019-05-20T18:09:42.830Z,16.00
2019-05-20T18:12:11.382Z,16.00
2019-05-20T18:14:41.608Z,16.10
2019-05-20T18:17:10.057Z,16.00
2019-05-20T18:19:38.488Z,16.00
2019-05-20T18:22:07.067Z,16.10
2019-05-20T18:24:35.541Z,16.10
2019-05-20T18:27:04.061Z,16.00
2019-05-20T18:29:32.477Z,16.00
2019-05-20T18:32:00.938Z,16.00
2019-05-20T18:34:29.398Z,16.00
2019-05-20T18:36:57.846Z,15.90
2019-05-20T18:39:26.281Z,15.90
2019-05-20T18:41:54.744Z,15.90
2019-05-20T18:44:23.230Z,15.90
2019-05-20T18:46:51.697Z,15.80
2019-05-20T18:49:20.244Z,15.80
2019-05-20T18:51:48.661Z,15.70
2019-05-20T18:54:17.173Z,15.70
2019-05-20T18:56:45.598Z,15.60
2019-05-20T18:59:14.035Z,15.50
2019-05-20T19:01:55.756Z,15.60
2019-05-20T19:04:12.743Z,15.60
2019-05-20T19:06:41.187Z,15.60
2019-05-20T19:09:10.276Z,15.50
2019-05-20T19:11:38.780Z,15.40
2019-05-20T19:14:08.528Z,15.40
2019-05-20T19:16:37.250Z,15.40
2019-05-20T19:19:08.832Z,15.60
2019-05-20T19:21:37.267Z,15.60
2019-05-20T19:24:05.719Z,15.50
2019-05-20T19:26:34.153Z,15.50
2019-05-20T19:29:02.736Z,15.50
2019-05-20T19:31:31.420Z,15.50
2019-05-20T19:33:59.900Z,15.40
2019-05-20T19:36:28.328Z,15.40
2019-05-20T19:38:56.799Z,15.40
2019-05-20T19:41:25.315Z,15.40
2019-05-20T19:43:53.826Z,15.30
2019-05-20T19:46:22.281Z,15.20
2019-05-20T19:48:50.763Z,15.20
2019-05-20T19:51:19.289Z,15.10
2019-05-20T19:53:47.786Z,15.10
2019-05-20T19:56:16.313Z,15.00
2019-05-20T19:58:44.858Z,15.10
2019-05-20T20:01:13.309Z,15.10
2019-05-20T20:03:41.740Z,15.10
2019-05-20T20:06:10.258Z,15.00
2019-05-20T20:08:38.704Z,15.10
2019-05-20T20:11:07.163Z,15.10
2019-05-20T20:13:35.599Z,15.10
2019-05-20T20:16:04.138Z,15.00
2019-05-20T20:18:32.643Z,15.10
2019-05-20T20:21:01.164Z,15.00
2019-05-20T20:23:29.613Z,14.90
2019-05-20T20:25:58.052Z,14.90
2019-05-20T20:28:26.493Z,14.80
2019-05-20T20:30:54.934Z,14.80
2019-05-20T20:33:23.377Z,14.80
2019-05-20T20:35:51.850Z,14.70
2019-05-20T20:38:20.292Z,14.70
2019-05-20T20:40:48.751Z,14.60
2019-05-20T20:43:18.744Z,14.60
2019-05-20T20:45:47.178Z,14.70
2019-05-20T20:48:15.626Z,14.60
2019-05-20T20:50:44.525Z,14.60
2019-05-20T20:53:12.975Z,14.50
2019-05-20T20:55:41.422Z,14.60
2019-05-20T20:58:09.871Z,14.50
2019-05-20T21:00:38.317Z,14.50
2019-05-20T21:03:06.828Z,14.60
2019-05-20T21:05:35.423Z,14.70
2019-05-20T21:08:03.881Z,14.80
2019-05-20T21:10:33.952Z,14.80
2019-05-20T21:13:03.946Z,14.80
2019-05-20T21:15:32.369Z,14.80
2019-05-20T21:18:00.895Z,14.80
2019-05-20T21:20:29.322Z,14.80
2019-05-20T21:22:57.770Z,14.70
2019-05-20T21:25:26.221Z,14.70
2019-05-20T21:27:54.665Z,14.70
2019-05-20T21:30:25.596Z,14.70
2019-05-20T21:33:08.188Z,14.70
2019-05-20T21:35:25.413Z,14.70
2019-05-20T21:37:53.861Z,14.60
2019-05-20T21:40:22.437Z,14.50
2019-05-20T21:42:51.022Z,14.50
2019-05-20T21:45:19.452Z,14.60
2019-05-20T21:47:47.892Z,14.60
2019-05-20T21:50:16.415Z,14.60
2019-05-20T21:52:44.836Z,14.70
2019-05-20T21:55:13.648Z,14.60
2019-05-20T21:57:44.704Z,14.60
2019-05-20T22:00:15.722Z,14.50
2019-05-20T22:02:44.222Z,14.40
2019-05-20T22:05:15.741Z,14.40
2019-05-20T22:07:47.066Z,14.30
2019-05-20T22:10:18.662Z,14.30
2019-05-20T22:12:47.164Z,14.30
2019-05-20T22:15:15.616Z,14.30
2019-05-20T22:17:44.045Z,14.30
2019-05-20T22:20:12.632Z,14.30
2019-05-20T22:22:42.706Z,14.20
2019-05-20T22:25:11.474Z,14.10
2019-05-20T22:27:40.103Z,14.10
2019-05-20T22:30:09.349Z,14.10
2019-05-20T22:32:37.782Z,14.00
2019-05-20T22:35:09.725Z,14.00
2019-05-20T22:37:37.686Z,13.90
2019-05-20T22:40:07.176Z,13.90
2019-05-20T22:42:35.675Z,13.80
2019-05-20T22:45:05.168Z,13.80
2019-05-20T22:47:33.585Z,13.70
2019-05-20T22:50:02.102Z,13.70
2019-05-20T22:52:30.525Z,13.70
2019-05-20T22:54:59.055Z,13.70
2019-05-20T22:57:27.481Z,13.60
2019-05-20T22:59:55.906Z,13.60
2019-05-20T23:02:24.333Z,13.50
2019-05-20T23:04:52.866Z,13.50
2019-05-20T23:07:21.344Z,13.50
2019-05-20T23:09:49.770Z,13.50
2019-05-20T23:12:18.396Z,13.50
2019-05-20T23:14:49.095Z,13.40
2019-05-20T23:17:17.052Z,13.40
2019-05-20T23:19:45.517Z,13.40
2019-05-20T23:22:13.958Z,13.30
2019-05-20T23:24:42.424Z,13.40
2019-05-20T23:27:10.877Z,13.40
2019-05-20T23:29:39.694Z,13.40
2019-05-20T23:32:08.135Z,13.40
2019-05-20T23:34:36.570Z,13.40
2019-05-20T23:37:06.562Z,13.40
2019-05-20T23:39:34.987Z,13.40
2019-05-20T23:42:06.501Z,13.30
2019-05-20T23:44:34.920Z,13.30
2019-05-20T23:47:03.364Z,13.30
2019-05-20T23:49:31.785Z,13.20
2019-05-20T23:52:00.216Z,13.20
2019-05-20T23:54:28.703Z,13.10
2019-05-20T23:56:57.158Z,13.10
2019-05-20T23:59:25.581Z,13.10
